Latest Weather Observations for Roma

IDQ60801

Issued at 5:32 pm EST Tuesday 28 February 2017 (issued every 30 minutes, with the page automatically refreshed every 10 minutes)

About weather observations | Map of weather stations | Latest weather observations for QLD | Other Formats
Station Details ID: 043091 Name: ROMA AIRPORT Lat: -26.55 Lon: 148.77 Height: 307.38 m
Data from the previous 72 hours. | See also: Recent months at Roma
Date/Time
EST
Temp
°C
App
Temp
°C
Dew
Point
°C
Rel
Hum
%
Delta-T
°C
Wind Press
QNH
hPa
Press
MSL
hPa
Rain since
9am
mm
Dir  Spd
km/h
Gust
km/h
Spd
kts
Gust
kts
28/05:00pm 28.4 24.4 10.6 33 10.2 SSE 22 32 12 17 1014.1 1012.2 0.0
28/04:30pm 29.0 25.8 11.1 33 10.4 SSE 19 26 10 14 1014.2 1012.3 0.0
28/04:00pm 30.2 26.8 11.2 31 11.1 SE 20 32 11 17 1014.2 1012.3 0.0
28/03:30pm 30.0 26.9 11.5 32 10.9 SE 19 26 10 14 1014.3 1012.4 0.0
28/03:00pm 29.9 26.6 10.9 31 11.0 ESE 19 30 10 16 1014.4 1012.5 0.0
28/02:30pm 30.3 28.2 11.3 31 11.1 SE 13 20 7 11 1014.7 1012.8 0.0
28/02:00pm 29.8 28.5 11.3 32 10.8 ESE 9 15 5 8 1014.9 1013.0 0.0
28/01:30pm 30.4 28.3 12.3 33 10.8 ESE 15 26 8 14 1015.2 1013.3 0.0
28/01:00pm 29.4 28.3 13.2 37 9.7 ENE 11 20 6 11 1015.6 1013.7 0.0
28/12:30pm 28.6 26.9 12.5 37 9.5 SE 13 22 7 12 1016.0 1014.1 0.0
28/12:00pm 29.0 28.2 14.0 39 9.1 E 11 20 6 11 1016.3 1014.4 0.0
28/11:30am 29.1 28.2 14.9 42 8.7 E 13 17 7 9 1016.6 1014.7 0.0
28/11:00am 28.3 27.6 14.2 42 8.6 ESE 11 24 6 13 1017.1 1015.2 0.0
28/10:30am 26.7 25.9 15.1 49 7.1 E 13 22 7 12 1017.5 1015.6 0.0
28/10:00am 26.7 26.5 15.7 51 6.8 E 11 20 6 11 1017.7 1015.8 0.0
28/09:30am 25.5 24.7 15.2 53 6.3 NE 13 17 7 9 1017.7 1015.8 0.0
28/09:00am 24.6 23.9 15.5 57 5.6 NE 13 24 7 13 1017.8 1015.9 0.2
28/08:30am 23.7 22.9 15.2 59 5.2 ENE 13 20 7 11 1017.8 1015.9 0.2
28/08:00am 22.9 21.9 15.5 63 4.5 ENE 15 22 8 12 1017.6 1015.7 0.2
28/07:30am 22.0 21.6 16.1 69 3.6 E 13 19 7 10 1017.6 1015.7 0.2
28/07:00am 20.3 20.3 15.3 73 3.0 E 9 15 5 8 1017.3 1015.4 0.2
28/06:30am 18.8 19.1 15.1 79 2.2 E 7 9 4 5 1017.1 1015.2 0.2
28/06:00am 18.2 17.6 14.7 80 2.1 NE 11 15 6 8 1016.6 1014.7 0.2
28/05:30am 18.2 17.6 14.5 79 2.2 ENE 11 15 6 8 1016.6 1014.7 0.2
28/05:00am 18.2 17.3 14.9 81 1.9 ENE 13 15 7 8 1016.2 1014.3 0.2
28/04:30am 18.2 17.7 14.9 81 1.9 ENE 11 13 6 7 1016.0 1014.1 0.2
28/04:00am 18.4 18.2 14.7 79 2.2 NE 9 13 5 7 1015.9 1014.0 0.2
28/03:30am 18.8 19.0 14.7 77 2.4 NNE 7 9 4 5 1015.9 1014.0 0.2
28/03:00am 19.0 19.3 14.5 75 2.6 ENE 6 7 3 4 1015.9 1014.0 0.2
28/02:30am 19.2 18.6 14.7 75 2.7 ENE 11 15 6 8 1016.0 1014.1 0.2
28/02:00am 19.3 18.6 14.3 73 2.9 ENE 11 15 6 8 1016.3 1014.4 0.2
28/01:30am 19.5 18.3 13.9 70 3.3 E 13 15 7 8 1016.6 1014.7 0.2
28/01:00am 20.2 19.1 14.3 69 3.5 ESE 13 19 7 10 1016.8 1014.9 0.2
28/12:30am 20.6 19.3 13.8 65 4.0 E 13 15 7 8 1017.1 1015.2 0.2
28/12:00am 21.1 20.1 13.5 62 4.4 ENE 11 15 6 8 1016.9 1015.1 0.2
 
Date/Time
EST
Temp
°C
App
Temp
°C
Dew
Point
°C
Rel
Hum
%
Delta-T
°C
Wind Press
QNH
hPa
Press
MSL
hPa
Rain since
9am
mm
Dir  Spd
km/h
Gust
km/h
Spd
kts
Gust
kts
27/11:30pm 22.2 20.8 13.5 57 5.1 N 13 17 7 9 1016.9 1015.1 0.2
27/11:00pm 22.5 21.1 12.2 52 5.9 NE 11 13 6 7 1016.9 1015.1 0.2
27/10:30pm 23.5 21.1 11.5 47 6.8 E 15 20 8 11 1016.6 1014.7 0.2
27/10:00pm 23.9 21.4 12.2 48 6.7 ESE 17 24 9 13 1016.6 1014.7 0.2
27/09:30pm 24.1 22.0 12.4 48 6.8 ESE 15 20 8 11 1016.4 1014.5 0.2
27/09:00pm 23.3 22.5 11.0 46 6.9 SE 6 6 3 3 1015.8 1013.9 0.2
27/08:30pm 23.2 22.1 10.6 45 7.1 SSE 7 7 4 4 1015.8 1013.9 0.2
27/08:00pm 23.8 22.5 9.8 41 7.7 SE 7 7 4 4 1015.5 1013.6 0.2
27/07:30pm 25.3 23.8 10.4 39 8.4 SE 9 11 5 6 1015.3 1013.4 0.2
27/07:00pm 25.6 23.3 9.0 35 9.1 SE 11 15 6 8 1015.0 1013.1 0.2
27/06:30pm 27.3 24.4 8.2 30 10.5 SE 13 19 7 10 1014.8 1012.9 0.2
27/06:00pm 28.7 25.0 7.9 27 11.4 ESE 17 20 9 11 1014.5 1012.6 0.2
27/05:30pm 29.7 25.5 8.2 26 11.9 SE 20 24 11 13 1014.2 1012.3 0.2
27/05:00pm 29.7 26.4 8.2 26 11.9 ESE 15 22 8 12 1014.1 1012.2 0.2
27/04:30pm 31.2 28.2 9.4 26 12.4 SE 15 20 8 11 1014.2 1012.3 0.2
27/04:00pm 31.3 27.0 9.5 26 12.5 SE 22 30 12 16 1014.3 1012.4 0.2
27/03:30pm 31.4 27.7 10.2 27 12.3 E 20 32 11 17 1014.3 1012.4 0.2
27/03:00pm 31.4 28.0 11.2 29 11.9 SE 20 30 11 16 1014.5 1012.6 0.2
27/02:30pm 31.3 28.3 10.6 28 12.0 ESE 17 30 9 16 1014.9 1013.0 0.2
27/02:00pm 30.6 27.0 10.5 29 11.6 ESE 20 32 11 17 1015.4 1013.5 0.2
27/01:30pm 30.5 28.6 12.9 34 10.6 SE 15 26 8 14 1015.8 1013.9 0.2
27/01:00pm 30.8 28.5 13.1 34 10.7 ESE 17 28 9 15 1016.2 1014.3 0.2
27/12:30pm 29.3 26.8 13.5 38 9.5 ESE 19 26 10 14 1016.6 1014.7 0.2
27/12:00pm 28.8 25.8 12.7 37 9.6 ESE 20 28 11 15 1017.2 1015.3 0.2
27/11:30am 28.6 26.1 14.1 41 8.8 E 20 43 11 23 1017.5 1015.6 0.2
27/11:00am 27.7 25.3 14.3 43 8.1 ESE 20 28 11 15 1017.7 1015.8 0.2
27/10:30am 27.5 25.3 14.5 45 7.9 E 19 24 10 13 1018.0 1016.1 0.0
27/10:00am 26.6 24.5 15.3 50 6.9 E 20 28 11 15 1018.2 1016.3 0.0
27/09:30am 25.3 23.6 16.2 57 5.6 E 20 30 11 16 1018.2 1016.3 0.0
27/09:00am 24.0 23.3 17.3 66 4.2 E 17 24 9 13 1018.4 1016.5 0.8
27/08:30am 22.7 22.7 17.2 71 3.4 ESE 13 19 7 10 1018.5 1016.6 0.8
27/08:00am 21.7 22.3 16.9 74 3.0 ESE 9 13 5 7 1018.3 1016.4 0.8
27/07:30am 20.5 20.9 16.3 77 2.6 ESE 9 11 5 6 1018.2 1016.3 0.8
27/07:00am 19.1 19.4 16.0 82 1.9 SE 9 9 5 5 1017.9 1016.0 0.8
27/06:30am 17.2 17.3 15.4 89 1.1 SE 9 9 5 5 1017.5 1015.6 0.8
27/06:00am 16.6 18.2 14.8 89 1.1 CALM 0 0 0 0 1017.4 1015.5 0.8
27/05:30am 16.8 17.4 15.2 90 0.9 S 6 7 3 4 1017.1 1015.2 0.8
27/05:00am 16.8 18.0 14.8 88 1.2 NNE 2 7 1 4 1017.1 1015.2 0.8
27/04:30am 17.1 17.6 14.9 87 1.3 NE 6 7 3 4 1016.6 1014.7 0.8
27/04:00am 17.4 17.3 15.0 86 1.4 ESE 9 11 5 6 1016.6 1014.7 0.8
27/03:30am 17.5 17.3 14.8 84 1.6 ESE 9 13 5 7 1016.5 1014.6 0.8
27/03:00am 18.3 18.3 15.2 82 1.8 NE 9 15 5 8 1016.2 1014.3 0.8
27/02:30am 19.0 17.3 15.7 81 2.0 NNE 19 24 10 13 1015.7 1013.8 0.8
27/02:00am 19.4 16.7 15.7 79 2.2 NNE 24 33 13 18 1015.6 1013.7 0.8
27/01:30am 19.3 17.5 15.4 78 2.3 NNE 19 28 10 15 1016.0 1014.1 0.8
27/01:00am 19.4 17.3 15.3 77 2.4 NE 20 28 11 15 1016.0 1014.1 0.8
27/12:30am 19.2 17.8 15.5 79 2.2 NE 17 26 9 14 1016.2 1014.3 0.8
27/12:00am 19.3 16.6 15.6 79 2.2 ENE 24 35 13 19 1016.4 1014.5 0.8
 
Date/Time
EST
Temp
°C
App
Temp
°C
Dew
Point
°C
Rel
Hum
%
Delta-T
°C
Wind Press
QNH
hPa
Press
MSL
hPa
Rain since
9am
mm
Dir  Spd
km/h
Gust
km/h
Spd
kts
Gust
kts
26/11:30pm 19.5 17.1 16.3 82 1.9 E 24 30 13 16 1016.4 1014.5 0.8
26/11:00pm 19.2 18.5 16.4 84 1.7 ENE 15 20 8 11 1016.2 1014.3 0.8
26/10:30pm 19.2 18.8 16.2 83 1.8 ENE 13 19 7 10 1016.9 1015.1 0.8
26/10:00pm 19.2 19.3 16.4 84 1.7 NE 11 17 6 9 1017.9 1016.0 0.8
26/09:30pm 19.0 18.2 16.2 84 1.7 NNE 15 19 8 10 1018.1 1016.2 0.8
26/09:00pm 18.5 16.0 16.1 86 1.4 SE 24 35 13 19 1018.1 1016.2 0.6
26/08:33pm 20.8 15.1 15.1 70 3.4 SSE 39 63 21 34 1016.8 1014.9 0.0
26/08:30pm 21.7 17.3 14.1 62 4.5 SE 30 63 16 34 1016.6 1014.7 0.0
26/08:27pm 23.6 21.6 14.0 55 5.7 SE 17 59 9 32 1016.5 1014.6 0.0
26/08:25pm 24.2 23.8 14.0 53 6.1 ESE 9 30 5 16 1015.9 1014.0 0.0
26/08:00pm 24.7 22.0 13.6 50 6.6 NW 20 30 11 16 1013.7 1011.7 0.0
26/07:30pm 25.3 22.4 12.9 46 7.3 WNW 20 24 11 13 1013.8 1011.8 0.0
26/07:00pm 26.6 22.8 13.7 45 7.7 WNW 26 37 14 20 1013.0 1011.1 0.0
26/06:58pm 26.7 24.0 13.4 43 7.9 WNW 20 37 11 20 1012.9 1011.0 0.0
26/06:30pm 28.5 29.0 11.6 35 9.9 CALM 0 0 0 0 1012.5 1010.6 0.0
26/06:00pm 28.7 29.6 13.0 38 9.4 CALM 0 0 0 0 1012.4 1010.5 0.0
26/05:30pm 30.0 30.1 10.0 29 11.5 CALM 0 0 0 0 1012.3 1010.4 0.0
26/05:00pm 30.5 28.8 9.9 28 11.8 ENE 9 13 5 7 1011.9 1010.0 0.0
26/04:30pm 30.6 28.0 9.5 27 12.0 E 13 17 7 9 1011.6 1009.7 0.0
26/04:00pm 31.3 27.8 8.9 25 12.7 E 17 20 9 11 1011.5 1009.6 0.0
26/03:30pm 31.4 28.5 9.6 26 12.5 ENE 15 24 8 13 1011.6 1009.7 0.0
26/03:00pm 31.9 29.2 8.8 24 13.1 NE 13 28 7 15 1011.9 1010.0 0.0
26/02:30pm 33.3 29.5 11.2 26 13.1 E 22 33 12 18 1011.7 1009.8 0.0
26/02:00pm 33.1 29.8 11.0 26 13.0 ENE 19 30 10 16 1012.8 1010.9 0.0
26/01:30pm 32.5 30.8 11.1 27 12.6 NE 11 17 6 9 1013.5 1011.6 0.0
26/01:00pm 32.7 31.0 12.3 28 12.3 ENE 13 26 7 14 1014.0 1012.0 0.0
26/12:30pm 32.1 30.5 12.8 30 11.7 NNE 13 24 7 13 1014.3 1012.4 0.0
26/12:00pm 31.4 29.4 12.7 32 11.2 N 15 22 8 12 1014.7 1012.8 0.0
26/11:30am 31.0 28.5 12.4 32 11.1 NNE 17 28 9 15 1015.1 1013.2 0.0
26/11:00am 30.0 27.0 12.4 34 10.5 NE 20 30 11 16 1015.4 1013.5 0.0
26/10:30am 29.7 27.2 13.5 37 9.8 NNE 19 33 10 18 1015.8 1013.9 0.0
26/10:00am 28.6 25.3 12.9 38 9.4 N 22 30 12 16 1016.1 1014.2 0.0
26/09:30am 27.8 24.2 13.0 40 8.8 NNE 24 32 13 17 1016.0 1014.1 0.0
26/09:00am 26.7 22.8 12.0 40 8.6 NE 24 32 13 17 1016.1 1014.2 0.2
26/08:30am 26.6 23.1 13.3 43 7.9 NNE 24 37 13 20 1015.8 1013.9 0.2
26/08:00am 24.9 20.4 13.8 50 6.6 NNE 30 39 16 21 1015.7 1013.8 0.2
26/07:30am 24.2 20.7 14.6 55 5.8 NNE 26 35 14 19 1015.4 1013.5 0.2
26/07:00am 23.5 21.3 15.0 59 5.1 NNE 20 26 11 14 1015.3 1013.4 0.2
26/06:30am 22.6 20.7 15.2 63 4.5 NNE 19 26 10 14 1014.9 1013.0 0.2
26/06:00am 22.8 19.5 14.9 61 4.7 NE 26 35 14 19 1014.3 1012.4 0.2
26/05:30am 23.1 20.1 14.9 60 4.9 NE 24 33 13 18 1014.5 1012.6 0.2
26/05:00am 22.8 20.3 15.1 62 4.6 ENE 22 28 12 15 1014.3 1012.4 0.2
26/04:30am 22.6 20.5 16.2 67 3.9 NE 22 32 12 17 1013.7 1011.7 0.2
26/04:00am 24.0 21.8 15.0 57 5.4 NE 20 26 11 14 1014.1 1012.2 0.0
26/03:30am 23.3 21.9 14.6 58 5.2 E 15 20 8 11 1014.5 1012.6 0.0
26/03:00am 24.3 21.6 13.5 51 6.4 SE 20 30 11 16 1014.8 1012.9 0.0
26/02:30am 25.4 22.5 12.9 45 7.4 SSE 20 26 11 14 1015.0 1013.1 0.0
26/02:00am 25.4 22.5 12.9 45 7.4 SSE 20 28 11 15 1014.7 1012.8 0.0
26/01:30am 23.8 21.5 15.6 60 5.0 SSW 22 41 12 22 1014.3 1012.4 0.0
26/01:00am 22.0 22.4 16.3 70 3.5 SW 9 11 5 6 1012.6 1010.7 0.0
26/12:30am 21.4 22.1 16.1 72 3.2 NE 7 9 4 5 1011.9 1010.0 0.0
26/12:00am 22.1 21.6 15.0 64 4.3 NNW 11 15 6 8 1012.3 1010.4 0.0
 
Date/Time
EST
Temp
°C
App
Temp
°C
Dew
Point
°C
Rel
Hum
%
Delta-T
°C
Wind Press
QNH
hPa
Press
MSL
hPa
Rain since
9am
mm
Dir  Spd
km/h
Gust
km/h
Spd
kts
Gust
kts
25/11:30pm 22.6 22.5 15.0 62 4.6 NE 9 11 5 6 1012.6 1010.7 0.0
25/11:00pm 24.0 21.4 15.0 57 5.4 NNE 22 33 12 18 1013.1 1011.2 0.0
25/10:30pm 23.9 20.6 15.1 58 5.3 E 26 33 14 18 1013.2 1011.3 0.0
25/10:00pm 26.7 21.4 13.1 43 8.1 SSW 33 48 18 26 1014.4 1012.5 0.0
25/09:47pm 26.9 22.0 12.5 40 8.5 S 30 56 16 30 1014.3 1012.4 0.0
25/09:30pm 28.4 23.6 11.5 35 9.8 SE 28 37 15 20 1012.9 1011.0 0.0
25/09:27pm 28.5 23.7 11.6 35 9.9 SE 28 35 15 19 1012.8 1010.9 0.0
25/09:00pm 25.6 25.9 15.9 55 6.0 ESE 9 15 5 8 1012.7 1010.8 0.0
25/08:30pm 26.8 28.1 15.2 49 7.1 NNE 2 9 1 5 1012.6 1010.7 0.0
25/08:00pm 27.0 28.4 14.4 46 7.6 CALM 0 0 0 0 1012.4 1010.5 0.0
25/07:30pm 27.9 27.3 12.3 38 9.2 E 7 7 4 4 1011.8 1009.9 0.0
25/07:00pm 29.3 28.9 12.3 35 10.1 NE 6 7 3 4 1011.5 1009.6 0.0
25/06:30pm 31.1 30.0 12.0 31 11.3 ENE 9 11 5 6 1011.2 1009.3 0.0
25/06:00pm 32.4 31.5 12.6 30 11.9 ENE 9 11 5 6 1011.4 1009.5 0.0

Other Formats:

Comma delimited format used in spreadsheet applications
http://www.bom.gov.au/fwo/IDQ60801/IDQ60801.94515.axf

JavaScript Object Notation format (JSON) in row-major order
http://www.bom.gov.au/fwo/IDQ60801/IDQ60801.94515.json